sensor_id;sensor_type;location;lat;lon;timestamp;P1;durP1;ratioP1;P2;durP2;ratioP2
7821;SDS011;3956;50.558;9.678;2023-04-03T00:00:34;5.67;;;1.80;;
7821;SDS011;3956;50.558;9.678;2023-04-03T00:03:02;6.57;;;1.80;;
7821;SDS011;3956;50.558;9.678;2023-04-03T00:05:31;6.20;;;1.50;;
7821;SDS011;3956;50.558;9.678;2023-04-03T00:07:59;4.10;;;1.70;;
7821;SDS011;3956;50.558;9.678;2023-04-03T00:10:29;2.30;;;1.30;;
7821;SDS011;3956;50.558;9.678;2023-04-03T00:12:57;4.73;;;1.60;;
7821;SDS011;3956;50.558;9.678;2023-04-03T00:15:26;4.63;;;1.40;;
7821;SDS011;3956;50.558;9.678;2023-04-03T00:17:54;2.37;;;1.50;;
7821;SDS011;3956;50.558;9.678;2023-04-03T00:20:23;2.43;;;1.37;;
7821;SDS011;3956;50.558;9.678;2023-04-03T00:22:52;4.80;;;1.63;;
7821;SDS011;3956;50.558;9.678;2023-04-03T00:25:21;3.67;;;1.43;;
7821;SDS011;3956;50.558;9.678;2023-04-03T00:27:50;5.57;;;1.73;;
7821;SDS011;3956;50.558;9.678;2023-04-03T00:30:19;4.63;;;1.73;;
7821;SDS011;3956;50.558;9.678;2023-04-03T00:32:49;4.17;;;1.93;;
7821;SDS011;3956;50.558;9.678;2023-04-03T00:35:18;4.20;;;1.67;;
7821;SDS011;3956;50.558;9.678;2023-04-03T00:37:48;6.40;;;1.80;;
7821;SDS011;3956;50.558;9.678;2023-04-03T00:40:18;3.70;;;1.40;;
7821;SDS011;3956;50.558;9.678;2023-04-03T00:42:47;2.83;;;1.80;;
7821;SDS011;3956;50.558;9.678;2023-04-03T00:45:26;4.00;;;1.60;;
7821;SDS011;3956;50.558;9.678;2023-04-03T00:47:57;4.10;;;1.73;;
7821;SDS011;3956;50.558;9.678;2023-04-03T00:50:27;3.73;;;1.63;;
7821;SDS011;3956;50.558;9.678;2023-04-03T00:52:56;7.07;;;1.50;;
7821;SDS011;3956;50.558;9.678;2023-04-03T00:55:26;4.67;;;1.40;;
7821;SDS011;3956;50.558;9.678;2023-04-03T00:57:55;4.23;;;1.53;;
7821;SDS011;3956;50.558;9.678;2023-04-03T01:00:26;3.13;;;1.60;;
7821;SDS011;3956;50.558;9.678;2023-04-03T01:02:54;6.97;;;1.70;;
7821;SDS011;3956;50.558;9.678;2023-04-03T01:05:23;3.50;;;1.70;;
7821;SDS011;3956;50.558;9.678;2023-04-03T01:07:51;9.00;;;1.97;;
7821;SDS011;3956;50.558;9.678;2023-04-03T01:10:21;3.67;;;1.60;;
7821;SDS011;3956;50.558;9.678;2023-04-03T01:12:49;6.93;;;2.03;;
7821;SDS011;3956;50.558;9.678;2023-04-03T01:15:19;3.20;;;1.97;;
7821;SDS011;3956;50.558;9.678;2023-04-03T01:17:51;2.83;;;1.50;;
7821;SDS011;3956;50.558;9.678;2023-04-03T01:20:36;3.93;;;1.57;;
7821;SDS011;3956;50.558;9.678;2023-04-03T01:23:20;4.07;;;1.80;;
7821;SDS011;3956;50.558;9.678;2023-04-03T01:25:56;4.43;;;1.50;;
7821;SDS011;3956;50.558;9.678;2023-04-03T01:28:25;4.10;;;1.60;;
7821;SDS011;3956;50.558;9.678;2023-04-03T01:30:58;8.27;;;2.20;;
7821;SDS011;3956;50.558;9.678;2023-04-03T01:33:31;2.37;;;1.40;;
7821;SDS011;3956;50.558;9.678;2023-04-03T01:36:00;3.43;;;1.40;;
7821;SDS011;3956;50.558;9.678;2023-04-03T01:38:28;3.97;;;1.70;;
7821;SDS011;3956;50.558;9.678;2023-04-03T01:40:57;6.30;;;1.70;;
7821;SDS011;3956;50.558;9.678;2023-04-03T01:43:25;2.40;;;1.43;;
7821;SDS011;3956;50.558;9.678;2023-04-03T01:45:53;3.90;;;1.60;;
7821;SDS011;3956;50.558;9.678;2023-04-03T01:48:22;8.93;;;1.90;;
7821;SDS011;3956;50.558;9.678;2023-04-03T01:50:51;3.60;;;1.30;;
7821;SDS011;3956;50.558;9.678;2023-04-03T01:53:19;4.27;;;1.63;;
7821;SDS011;3956;50.558;9.678;2023-04-03T01:55:48;4.73;;;1.60;;
7821;SDS011;3956;50.558;9.678;2023-04-03T01:58:17;7.03;;;1.77;;
7821;SDS011;3956;50.558;9.678;2023-04-03T02:00:45;2.23;;;1.20;;
7821;SDS011;3956;50.558;9.678;2023-04-03T02:03:13;2.20;;;1.40;;
7821;SDS011;3956;50.558;9.678;2023-04-03T02:05:42;4.67;;;1.70;;
7821;SDS011;3956;50.558;9.678;2023-04-03T02:08:11;4.03;;;1.83;;
7821;SDS011;3956;50.558;9.678;2023-04-03T02:10:40;7.50;;;2.17;;
7821;SDS011;3956;50.558;9.678;2023-04-03T02:13:08;4.87;;;1.70;;
7821;SDS011;3956;50.558;9.678;2023-04-03T02:15:37;5.97;;;1.70;;
7821;SDS011;3956;50.558;9.678;2023-04-03T02:18:06;7.90;;;1.93;;
7821;SDS011;3956;50.558;9.678;2023-04-03T02:20:35;4.53;;;1.60;;
7821;SDS011;3956;50.558;9.678;2023-04-03T02:23:03;6.70;;;2.57;;
7821;SDS011;3956;50.558;9.678;2023-04-03T02:25:33;5.03;;;2.00;;
7821;SDS011;3956;50.558;9.678;2023-04-03T02:28:04;7.30;;;2.30;;
7821;SDS011;3956;50.558;9.678;2023-04-03T02:30:32;6.80;;;1.80;;
7821;SDS011;3956;50.558;9.678;2023-04-03T02:33:01;5.17;;;1.70;;
7821;SDS011;3956;50.558;9.678;2023-04-03T02:35:29;3.60;;;1.50;;
7821;SDS011;3956;50.558;9.678;2023-04-03T02:38:06;5.60;;;1.83;;
7821;SDS011;3956;50.558;9.678;2023-04-03T02:40:36;6.27;;;1.73;;
7821;SDS011;3956;50.558;9.678;2023-04-03T02:43:05;4.30;;;1.77;;
7821;SDS011;3956;50.558;9.678;2023-04-03T02:45:33;7.10;;;2.23;;
7821;SDS011;3956;50.558;9.678;2023-04-03T02:48:02;3.37;;;1.60;;
7821;SDS011;3956;50.558;9.678;2023-04-03T02:50:31;5.50;;;1.77;;
7821;SDS011;3956;50.558;9.678;2023-04-03T02:52:59;5.60;;;1.70;;
7821;SDS011;3956;50.558;9.678;2023-04-03T02:55:27;3.93;;;1.90;;
7821;SDS011;3956;50.558;9.678;2023-04-03T02:57:59;4.20;;;1.60;;
7821;SDS011;3956;50.558;9.678;2023-04-03T03:00:27;3.97;;;1.80;;
7821;SDS011;3956;50.558;9.678;2023-04-03T03:02:59;6.60;;;1.93;;
7821;SDS011;3956;50.558;9.678;2023-04-03T03:05:29;5.67;;;2.10;;
7821;SDS011;3956;50.558;9.678;2023-04-03T03:07:59;6.57;;;2.80;;
7821;SDS011;3956;50.558;9.678;2023-04-03T03:10:27;5.33;;;2.27;;
7821;SDS011;3956;50.558;9.678;2023-04-03T03:12:55;4.57;;;1.77;;
7821;SDS011;3956;50.558;9.678;2023-04-03T03:15:25;10.53;;;2.40;;
7821;SDS011;3956;50.558;9.678;2023-04-03T03:17:54;5.47;;;2.00;;
7821;SDS011;3956;50.558;9.678;2023-04-03T03:20:22;6.50;;;2.60;;
7821;SDS011;3956;50.558;9.678;2023-04-03T03:22:50;8.63;;;3.73;;
7821;SDS011;3956;50.558;9.678;2023-04-03T03:25:18;6.53;;;2.10;;
7821;SDS011;3956;50.558;9.678;2023-04-03T03:27:46;6.80;;;1.80;;
7821;SDS011;3956;50.558;9.678;2023-04-03T03:30:15;5.60;;;2.07;;
7821;SDS011;3956;50.558;9.678;2023-04-03T03:32:44;8.50;;;2.13;;
7821;SDS011;3956;50.558;9.678;2023-04-03T03:35:13;4.27;;;1.90;;
7821;SDS011;3956;50.558;9.678;2023-04-03T03:37:41;4.93;;;2.00;;
7821;SDS011;3956;50.558;9.678;2023-04-03T03:40:10;4.97;;;2.27;;
7821;SDS011;3956;50.558;9.678;2023-04-03T03:42:39;3.87;;;2.33;;
7821;SDS011;3956;50.558;9.678;2023-04-03T03:45:08;5.93;;;2.63;;
7821;SDS011;3956;50.558;9.678;2023-04-03T03:47:39;6.00;;;1.70;;
7821;SDS011;3956;50.558;9.678;2023-04-03T03:50:15;4.23;;;1.97;;
7821;SDS011;3956;50.558;9.678;2023-04-03T03:52:45;7.20;;;1.87;;
7821;SDS011;3956;50.558;9.678;2023-04-03T03:55:15;5.60;;;1.90;;
7821;SDS011;3956;50.558;9.678;2023-04-03T03:57:43;4.73;;;1.83;;
7821;SDS011;3956;50.558;9.678;2023-04-03T04:00:12;7.53;;;2.40;;
7821;SDS011;3956;50.558;9.678;2023-04-03T04:02:41;4.43;;;1.90;;
7821;SDS011;3956;50.558;9.678;2023-04-03T04:05:11;7.13;;;2.60;;
7821;SDS011;3956;50.558;9.678;2023-04-03T04:07:39;7.33;;;2.40;;
7821;SDS011;3956;50.558;9.678;2023-04-03T04:10:08;10.63;;;3.50;;
7821;SDS011;3956;50.558;9.678;2023-04-03T04:12:36;7.13;;;2.90;;
7821;SDS011;3956;50.558;9.678;2023-04-03T04:15:05;5.57;;;2.30;;
7821;SDS011;3956;50.558;9.678;2023-04-03T04:17:34;6.07;;;2.20;;
7821;SDS011;3956;50.558;9.678;2023-04-03T04:20:03;8.53;;;2.37;;
7821;SDS011;3956;50.558;9.678;2023-04-03T04:22:33;5.57;;;2.50;;
7821;SDS011;3956;50.558;9.678;2023-04-03T04:25:02;4.57;;;2.40;;
7821;SDS011;3956;50.558;9.678;2023-04-03T04:27:30;7.40;;;2.80;;
7821;SDS011;3956;50.558;9.678;2023-04-03T04:29:59;6.63;;;3.50;;
7821;SDS011;3956;50.558;9.678;2023-04-03T04:32:27;6.90;;;2.73;;
7821;SDS011;3956;50.558;9.678;2023-04-03T04:34:57;4.27;;;2.73;;
7821;SDS011;3956;50.558;9.678;2023-04-03T04:37:34;5.97;;;2.70;;
7821;SDS011;3956;50.558;9.678;2023-04-03T04:41:25;5.47;;;2.63;;
7821;SDS011;3956;50.558;9.678;2023-04-03T04:43:53;5.90;;;2.83;;
7821;SDS011;3956;50.558;9.678;2023-04-03T04:46:22;6.47;;;2.47;;
7821;SDS011;3956;50.558;9.678;2023-04-03T04:48:50;5.43;;;2.70;;
7821;SDS011;3956;50.558;9.678;2023-04-03T04:51:18;5.07;;;2.80;;
7821;SDS011;3956;50.558;9.678;2023-04-03T04:53:49;9.43;;;2.80;;
7821;SDS011;3956;50.558;9.678;2023-04-03T04:56:21;14.37;;;2.97;;
7821;SDS011;3956;50.558;9.678;2023-04-03T04:58:50;5.83;;;2.80;;
7821;SDS011;3956;50.558;9.678;2023-04-03T05:01:19;4.30;;;2.47;;
7821;SDS011;3956;50.558;9.678;2023-04-03T05:03:47;6.93;;;2.60;;
7821;SDS011;3956;50.558;9.678;2023-04-03T05:06:16;5.80;;;2.97;;
7821;SDS011;3956;50.558;9.678;2023-04-03T05:08:44;6.03;;;3.30;;
7821;SDS011;3956;50.558;9.678;2023-04-03T05:11:13;6.90;;;2.57;;
7821;SDS011;3956;50.558;9.678;2023-04-03T05:13:44;6.90;;;2.50;;
7821;SDS011;3956;50.558;9.678;2023-04-03T05:16:14;7.80;;;3.10;;
7821;SDS011;3956;50.558;9.678;2023-04-03T05:18:57;9.20;;;3.13;;
7821;SDS011;3956;50.558;9.678;2023-04-03T05:22:23;8.47;;;3.20;;
7821;SDS011;3956;50.558;9.678;2023-04-03T05:24:52;4.30;;;2.30;;
7821;SDS011;3956;50.558;9.678;2023-04-03T05:27:22;9.53;;;3.13;;
7821;SDS011;3956;50.558;9.678;2023-04-03T05:29:55;7.40;;;2.90;;
7821;SDS011;3956;50.558;9.678;2023-04-03T05:32:26;4.57;;;2.67;;
7821;SDS011;3956;50.558;9.678;2023-04-03T05:35:14;6.97;;;2.60;;
7821;SDS011;3956;50.558;9.678;2023-04-03T05:38:05;7.77;;;3.07;;
7821;SDS011;3956;50.558;9.678;2023-04-03T05:40:34;8.03;;;2.93;;
7821;SDS011;3956;50.558;9.678;2023-04-03T05:43:04;7.57;;;3.27;;
7821;SDS011;3956;50.558;9.678;2023-04-03T05:45:35;5.83;;;2.93;;
7821;SDS011;3956;50.558;9.678;2023-04-03T05:48:15;12.20;;;3.20;;
7821;SDS011;3956;50.558;9.678;2023-04-03T05:50:43;4.80;;;2.77;;
7821;SDS011;3956;50.558;9.678;2023-04-03T05:53:12;6.93;;;2.70;;
7821;SDS011;3956;50.558;9.678;2023-04-03T05:55:45;4.07;;;2.60;;
7821;SDS011;3956;50.558;9.678;2023-04-03T05:58:17;8.33;;;3.00;;
7821;SDS011;3956;50.558;9.678;2023-04-03T06:01:05;4.97;;;2.50;;
7821;SDS011;3956;50.558;9.678;2023-04-03T06:03:40;4.27;;;2.03;;
7821;SDS011;3956;50.558;9.678;2023-04-03T06:06:13;6.07;;;3.00;;
7821;SDS011;3956;50.558;9.678;2023-04-03T06:08:46;4.67;;;2.67;;
7821;SDS011;3956;50.558;9.678;2023-04-03T06:11:17;7.23;;;3.03;;
7821;SDS011;3956;50.558;9.678;2023-04-03T06:13:47;5.17;;;3.00;;
7821;SDS011;3956;50.558;9.678;2023-04-03T06:16:17;5.93;;;3.00;;
7821;SDS011;3956;50.558;9.678;2023-04-03T06:18:47;10.03;;;3.20;;
7821;SDS011;3956;50.558;9.678;2023-04-03T06:21:24;3.70;;;2.33;;
7821;SDS011;3956;50.558;9.678;2023-04-03T06:24:03;2.47;;;2.20;;
7821;SDS011;3956;50.558;9.678;2023-04-03T06:26:43;6.37;;;2.87;;
7821;SDS011;3956;50.558;9.678;2023-04-03T06:29:16;9.23;;;2.83;;
7821;SDS011;3956;50.558;9.678;2023-04-03T06:31:46;3.60;;;2.33;;
7821;SDS011;3956;50.558;9.678;2023-04-03T06:34:36;3.23;;;2.70;;
7821;SDS011;3956;50.558;9.678;2023-04-03T06:37:15;4.50;;;2.70;;
7821;SDS011;3956;50.558;9.678;2023-04-03T06:39:50;7.20;;;2.40;;
7821;SDS011;3956;50.558;9.678;2023-04-03T06:42:19;2.90;;;1.93;;
7821;SDS011;3956;50.558;9.678;2023-04-03T06:44:51;3.03;;;2.60;;
7821;SDS011;3956;50.558;9.678;2023-04-03T06:47:22;5.43;;;2.57;;
7821;SDS011;3956;50.558;9.678;2023-04-03T06:49:57;3.73;;;2.30;;
7821;SDS011;3956;50.558;9.678;2023-04-03T06:52:28;4.80;;;2.20;;
7821;SDS011;3956;50.558;9.678;2023-04-03T06:55:07;4.57;;;2.73;;
7821;SDS011;3956;50.558;9.678;2023-04-03T06:57:49;4.53;;;2.57;;
7821;SDS011;3956;50.558;9.678;2023-04-03T07:00:25;11.13;;;2.93;;
7821;SDS011;3956;50.558;9.678;2023-04-03T07:02:56;5.47;;;2.80;;
7821;SDS011;3956;50.558;9.678;2023-04-03T07:07:51;4.13;;;2.70;;
7821;SDS011;3956;50.558;9.678;2023-04-03T07:10:23;3.97;;;2.30;;
7821;SDS011;3956;50.558;9.678;2023-04-03T07:12:55;6.47;;;2.53;;
7821;SDS011;3956;50.558;9.678;2023-04-03T07:15:27;5.73;;;2.70;;
7821;SDS011;3956;50.558;9.678;2023-04-03T07:18:03;4.70;;;2.73;;
7821;SDS011;3956;50.558;9.678;2023-04-03T07:20:37;4.80;;;2.63;;
7821;SDS011;3956;50.558;9.678;2023-04-03T07:23:27;4.70;;;2.80;;
7821;SDS011;3956;50.558;9.678;2023-04-03T07:26:04;6.37;;;2.80;;
7821;SDS011;3956;50.558;9.678;2023-04-03T07:29:05;5.77;;;2.83;;
7821;SDS011;3956;50.558;9.678;2023-04-03T07:31:39;4.13;;;2.70;;
7821;SDS011;3956;50.558;9.678;2023-04-03T07:34:15;6.43;;;3.00;;
7821;SDS011;3956;50.558;9.678;2023-04-03T07:36:52;5.47;;;2.63;;
7821;SDS011;3956;50.558;9.678;2023-04-03T07:39:42;7.77;;;2.97;;
7821;SDS011;3956;50.558;9.678;2023-04-03T07:42:15;8.33;;;3.30;;
7821;SDS011;3956;50.558;9.678;2023-04-03T07:44:44;8.17;;;4.47;;
7821;SDS011;3956;50.558;9.678;2023-04-03T07:47:56;7.73;;;3.50;;
7821;SDS011;3956;50.558;9.678;2023-04-03T07:50:43;4.77;;;2.90;;
7821;SDS011;3956;50.558;9.678;2023-04-03T07:53:20;8.07;;;4.10;;
7821;SDS011;3956;50.558;9.678;2023-04-03T07:56:31;7.40;;;2.90;;
7821;SDS011;3956;50.558;9.678;2023-04-03T07:59:00;6.37;;;3.20;;
7821;SDS011;3956;50.558;9.678;2023-04-03T08:01:29;7.43;;;3.47;;
7821;SDS011;3956;50.558;9.678;2023-04-03T08:04:06;6.33;;;3.37;;
7821;SDS011;3956;50.558;9.678;2023-04-03T08:06:37;6.03;;;3.40;;
7821;SDS011;3956;50.558;9.678;2023-04-03T08:09:12;6.87;;;3.03;;
7821;SDS011;3956;50.558;9.678;2023-04-03T08:11:43;5.00;;;3.00;;
7821;SDS011;3956;50.558;9.678;2023-04-03T08:14:17;5.70;;;3.20;;
7821;SDS011;3956;50.558;9.678;2023-04-03T08:16:50;6.13;;;3.07;;
7821;SDS011;3956;50.558;9.678;2023-04-03T08:19:59;8.80;;;3.10;;
7821;SDS011;3956;50.558;9.678;2023-04-03T08:22:30;7.83;;;3.37;;
7821;SDS011;3956;50.558;9.678;2023-04-03T08:25:00;4.00;;;2.40;;
7821;SDS011;3956;50.558;9.678;2023-04-03T08:27:35;7.57;;;2.97;;
7821;SDS011;3956;50.558;9.678;2023-04-03T08:30:07;4.40;;;2.90;;
7821;SDS011;3956;50.558;9.678;2023-04-03T08:32:38;5.40;;;2.80;;
7821;SDS011;3956;50.558;9.678;2023-04-03T08:35:12;5.23;;;3.00;;
7821;SDS011;3956;50.558;9.678;2023-04-03T08:37:41;4.27;;;2.90;;
7821;SDS011;3956;50.558;9.678;2023-04-03T08:40:13;5.23;;;3.10;;
7821;SDS011;3956;50.558;9.678;2023-04-03T08:42:48;4.20;;;3.00;;
7821;SDS011;3956;50.558;9.678;2023-04-03T08:45:41;3.97;;;2.50;;
7821;SDS011;3956;50.558;9.678;2023-04-03T08:48:51;3.37;;;2.60;;
7821;SDS011;3956;50.558;9.678;2023-04-03T08:51:23;4.13;;;2.77;;
7821;SDS011;3956;50.558;9.678;2023-04-03T08:54:23;3.53;;;2.47;;
7821;SDS011;3956;50.558;9.678;2023-04-03T08:57:13;4.10;;;2.40;;
7821;SDS011;3956;50.558;9.678;2023-04-03T08:59:50;6.23;;;2.87;;
7821;SDS011;3956;50.558;9.678;2023-04-03T09:02:24;4.97;;;2.87;;
7821;SDS011;3956;50.558;9.678;2023-04-03T09:04:59;7.90;;;3.23;;
7821;SDS011;3956;50.558;9.678;2023-04-03T09:07:36;6.50;;;3.00;;
7821;SDS011;3956;50.558;9.678;2023-04-03T09:10:14;4.87;;;2.20;;
7821;SDS011;3956;50.558;9.678;2023-04-03T09:12:57;5.30;;;2.60;;
7821;SDS011;3956;50.558;9.678;2023-04-03T09:15:36;4.23;;;2.40;;
7821;SDS011;3956;50.558;9.678;2023-04-03T09:18:11;14.37;;;2.93;;
7821;SDS011;3956;50.558;9.678;2023-04-03T09:21:00;5.17;;;2.30;;
7821;SDS011;3956;50.558;9.678;2023-04-03T09:23:39;5.20;;;2.53;;
7821;SDS011;3956;50.558;9.678;2023-04-03T09:26:13;5.53;;;2.83;;
7821;SDS011;3956;50.558;9.678;2023-04-03T09:28:45;3.70;;;2.50;;
7821;SDS011;3956;50.558;9.678;2023-04-03T09:31:20;4.87;;;2.50;;
7821;SDS011;3956;50.558;9.678;2023-04-03T09:33:54;3.80;;;2.30;;
7821;SDS011;3956;50.558;9.678;2023-04-03T09:36:40;6.67;;;2.70;;
7821;SDS011;3956;50.558;9.678;2023-04-03T09:39:21;6.53;;;2.40;;
7821;SDS011;3956;50.558;9.678;2023-04-03T09:41:58;2.10;;;1.67;;
7821;SDS011;3956;50.558;9.678;2023-04-03T09:44:30;3.60;;;1.90;;
7821;SDS011;3956;50.558;9.678;2023-04-03T09:47:17;4.57;;;2.00;;
7821;SDS011;3956;50.558;9.678;2023-04-03T09:50:08;2.67;;;2.00;;
7821;SDS011;3956;50.558;9.678;2023-04-03T09:52:51;3.73;;;2.00;;
7821;SDS011;3956;50.558;9.678;2023-04-03T09:55:27;4.77;;;1.83;;
7821;SDS011;3956;50.558;9.678;2023-04-03T09:57:56;2.93;;;1.87;;
7821;SDS011;3956;50.558;9.678;2023-04-03T10:00:30;2.93;;;1.77;;
7821;SDS011;3956;50.558;9.678;2023-04-03T10:03:06;2.23;;;1.70;;
7821;SDS011;3956;50.558;9.678;2023-04-03T10:05:52;6.93;;;2.17;;
7821;SDS011;3956;50.558;9.678;2023-04-03T10:08:29;2.73;;;2.00;;
7821;SDS011;3956;50.558;9.678;2023-04-03T10:11:11;4.97;;;2.20;;
7821;SDS011;3956;50.558;9.678;2023-04-03T10:13:49;5.20;;;2.90;;
7821;SDS011;3956;50.558;9.678;2023-04-03T10:16:25;3.53;;;2.17;;
7821;SDS011;3956;50.558;9.678;2023-04-03T10:19:19;3.40;;;2.00;;
7821;SDS011;3956;50.558;9.678;2023-04-03T10:22:13;4.47;;;2.70;;
7821;SDS011;3956;50.558;9.678;2023-04-03T10:24:52;6.97;;;2.30;;
7821;SDS011;3956;50.558;9.678;2023-04-03T10:30:35;7.93;;;2.20;;
7821;SDS011;3956;50.558;9.678;2023-04-03T10:33:23;5.00;;;2.77;;
7821;SDS011;3956;50.558;9.678;2023-04-03T10:36:09;4.53;;;2.67;;
7821;SDS011;3956;50.558;9.678;2023-04-03T10:38:46;6.33;;;2.53;;
7821;SDS011;3956;50.558;9.678;2023-04-03T10:41:22;5.40;;;2.40;;
7821;SDS011;3956;50.558;9.678;2023-04-03T10:44:30;5.83;;;3.03;;
7821;SDS011;3956;50.558;9.678;2023-04-03T10:47:38;5.27;;;3.20;;
7821;SDS011;3956;50.558;9.678;2023-04-03T10:50:23;5.83;;;3.30;;
7821;SDS011;3956;50.558;9.678;2023-04-03T10:53:03;5.73;;;3.10;;
7821;SDS011;3956;50.558;9.678;2023-04-03T10:55:39;6.50;;;2.87;;
7821;SDS011;3956;50.558;9.678;2023-04-03T10:58:25;5.77;;;3.10;;
7821;SDS011;3956;50.558;9.678;2023-04-03T11:04:39;2.60;;;1.70;;
7821;SDS011;3956;50.558;9.678;2023-04-03T11:07:16;2.57;;;1.60;;
7821;SDS011;3956;50.558;9.678;2023-04-03T11:10:35;3.57;;;1.90;;
7821;SDS011;3956;50.558;9.678;2023-04-03T11:13:14;2.83;;;2.00;;
7821;SDS011;3956;50.558;9.678;2023-04-03T11:15:45;1.90;;;1.50;;
7821;SDS011;3956;50.558;9.678;2023-04-03T11:18:17;3.53;;;1.77;;
7821;SDS011;3956;50.558;9.678;2023-04-03T11:20:57;2.87;;;1.60;;
7821;SDS011;3956;50.558;9.678;2023-04-03T11:23:31;2.90;;;1.53;;
7821;SDS011;3956;50.558;9.678;2023-04-03T11:26:15;2.13;;;1.40;;
7821;SDS011;3956;50.558;9.678;2023-04-03T11:28:46;4.27;;;1.90;;
7821;SDS011;3956;50.558;9.678;2023-04-03T11:31:26;1.87;;;1.30;;
7821;SDS011;3956;50.558;9.678;2023-04-03T11:34:39;2.63;;;1.70;;
7821;SDS011;3956;50.558;9.678;2023-04-03T11:43:40;4.93;;;1.47;;
7821;SDS011;3956;50.558;9.678;2023-04-03T11:46:11;2.47;;;1.30;;
7821;SDS011;3956;50.558;9.678;2023-04-03T11:48:45;2.70;;;1.83;;
7821;SDS011;3956;50.558;9.678;2023-04-03T12:10:13;3.87;;;1.40;;
7821;SDS011;3956;50.558;9.678;2023-04-03T12:13:40;5.10;;;1.53;;
7821;SDS011;3956;50.558;9.678;2023-04-03T12:17:00;1.33;;;1.07;;
7821;SDS011;3956;50.558;9.678;2023-04-03T12:19:48;2.37;;;1.40;;
7821;SDS011;3956;50.558;9.678;2023-04-03T12:22:36;3.43;;;1.40;;
7821;SDS011;3956;50.558;9.678;2023-04-03T12:25:47;2.33;;;1.10;;
7821;SDS011;3956;50.558;9.678;2023-04-03T12:28:17;3.53;;;1.80;;
7821;SDS011;3956;50.558;9.678;2023-04-03T12:37:48;2.07;;;1.30;;
7821;SDS011;3956;50.558;9.678;2023-04-03T12:40:56;1.97;;;1.13;;
7821;SDS011;3956;50.558;9.678;2023-04-03T12:43:45;2.90;;;1.30;;
7821;SDS011;3956;50.558;9.678;2023-04-03T12:46:58;4.93;;;1.90;;
7821;SDS011;3956;50.558;9.678;2023-04-03T12:49:44;2.50;;;1.30;;
7821;SDS011;3956;50.558;9.678;2023-04-03T12:52:22;5.27;;;1.37;;
7821;SDS011;3956;50.558;9.678;2023-04-03T12:55:03;2.37;;;1.47;;
7821;SDS011;3956;50.558;9.678;2023-04-03T12:58:21;1.77;;;1.10;;
7821;SDS011;3956;50.558;9.678;2023-04-03T13:01:15;5.03;;;1.43;;
7821;SDS011;3956;50.558;9.678;2023-04-03T13:04:10;4.63;;;1.33;;
7821;SDS011;3956;50.558;9.678;2023-04-03T13:11:13;1.50;;;1.30;;
7821;SDS011;3956;50.558;9.678;2023-04-03T13:14:25;6.23;;;1.70;;
7821;SDS011;3956;50.558;9.678;2023-04-03T13:17:37;8.67;;;1.40;;
7821;SDS011;3956;50.558;9.678;2023-04-03T13:20:18;3.97;;;2.00;;
7821;SDS011;3956;50.558;9.678;2023-04-03T13:23:06;3.23;;;1.70;;
7821;SDS011;3956;50.558;9.678;2023-04-03T13:30:21;2.50;;;1.57;;
7821;SDS011;3956;50.558;9.678;2023-04-03T13:33:31;2.83;;;0.90;;
7821;SDS011;3956;50.558;9.678;2023-04-03T13:36:05;5.13;;;1.50;;
7821;SDS011;3956;50.558;9.678;2023-04-03T13:38:40;4.10;;;1.30;;
7821;SDS011;3956;50.558;9.678;2023-04-03T13:50:59;3.53;;;1.30;;
7821;SDS011;3956;50.558;9.678;2023-04-03T13:53:31;2.33;;;1.27;;
7821;SDS011;3956;50.558;9.678;2023-04-03T13:56:07;2.50;;;1.40;;
7821;SDS011;3956;50.558;9.678;2023-04-03T13:58:59;1.87;;;1.33;;
7821;SDS011;3956;50.558;9.678;2023-04-03T14:01:42;2.50;;;1.50;;
7821;SDS011;3956;50.558;9.678;2023-04-03T14:04:19;3.57;;;2.07;;
7821;SDS011;3956;50.558;9.678;2023-04-03T14:10:01;2.43;;;1.23;;
7821;SDS011;3956;50.558;9.678;2023-04-03T14:12:32;3.27;;;1.30;;
7821;SDS011;3956;50.558;9.678;2023-04-03T14:15:16;4.67;;;2.00;;
7821;SDS011;3956;50.558;9.678;2023-04-03T14:17:55;3.87;;;1.50;;
7821;SDS011;3956;50.558;9.678;2023-04-03T14:20:26;2.53;;;1.60;;
7821;SDS011;3956;50.558;9.678;2023-04-03T14:22:59;5.37;;;1.77;;
7821;SDS011;3956;50.558;9.678;2023-04-03T14:25:34;2.73;;;1.40;;
7821;SDS011;3956;50.558;9.678;2023-04-03T14:28:16;3.70;;;1.40;;
7821;SDS011;3956;50.558;9.678;2023-04-03T14:31:02;2.77;;;1.47;;
7821;SDS011;3956;50.558;9.678;2023-04-03T14:33:32;2.60;;;1.50;;
7821;SDS011;3956;50.558;9.678;2023-04-03T14:36:14;4.40;;;1.60;;
7821;SDS011;3956;50.558;9.678;2023-04-03T14:38:49;2.17;;;1.20;;
7821;SDS011;3956;50.558;9.678;2023-04-03T14:41:25;3.10;;;1.50;;
7821;SDS011;3956;50.558;9.678;2023-04-03T14:44:00;2.50;;;1.40;;
7821;SDS011;3956;50.558;9.678;2023-04-03T14:46:56;3.33;;;1.30;;
7821;SDS011;3956;50.558;9.678;2023-04-03T14:49:32;2.40;;;1.50;;
7821;SDS011;3956;50.558;9.678;2023-04-03T14:52:20;2.10;;;1.50;;
7821;SDS011;3956;50.558;9.678;2023-04-03T14:56:00;1.90;;;1.60;;
7821;SDS011;3956;50.558;9.678;2023-04-03T14:58:32;5.10;;;1.50;;
7821;SDS011;3956;50.558;9.678;2023-04-03T15:01:09;4.00;;;1.47;;
7821;SDS011;3956;50.558;9.678;2023-04-03T15:04:08;1.80;;;1.40;;
7821;SDS011;3956;50.558;9.678;2023-04-03T15:09:26;3.50;;;1.60;;
7821;SDS011;3956;50.558;9.678;2023-04-03T15:12:01;2.70;;;1.40;;
7821;SDS011;3956;50.558;9.678;2023-04-03T15:14:33;6.97;;;1.73;;
7821;SDS011;3956;50.558;9.678;2023-04-03T15:17:21;3.83;;;1.40;;
7821;SDS011;3956;50.558;9.678;2023-04-03T15:19:49;3.23;;;1.50;;
7821;SDS011;3956;50.558;9.678;2023-04-03T15:22:18;4.27;;;1.43;;
7821;SDS011;3956;50.558;9.678;2023-04-03T15:24:57;2.77;;;1.40;;
7821;SDS011;3956;50.558;9.678;2023-04-03T15:27:41;2.33;;;1.50;;
7821;SDS011;3956;50.558;9.678;2023-04-03T15:30:42;4.23;;;1.30;;
7821;SDS011;3956;50.558;9.678;2023-04-03T15:33:20;5.47;;;1.53;;
7821;SDS011;3956;50.558;9.678;2023-04-03T15:35:53;2.33;;;1.40;;
7821;SDS011;3956;50.558;9.678;2023-04-03T15:38:46;6.37;;;1.53;;
7821;SDS011;3956;50.558;9.678;2023-04-03T15:41:28;6.73;;;1.70;;
7821;SDS011;3956;50.558;9.678;2023-04-03T15:44:00;3.47;;;1.60;;
7821;SDS011;3956;50.558;9.678;2023-04-03T15:46:29;5.80;;;1.90;;
7821;SDS011;3956;50.558;9.678;2023-04-03T15:48:59;3.37;;;1.53;;
7821;SDS011;3956;50.558;9.678;2023-04-03T15:51:32;2.10;;;1.60;;
7821;SDS011;3956;50.558;9.678;2023-04-03T15:54:32;6.07;;;1.87;;
7821;SDS011;3956;50.558;9.678;2023-04-03T15:57:01;2.90;;;1.30;;
7821;SDS011;3956;50.558;9.678;2023-04-03T15:59:31;7.43;;;1.70;;
7821;SDS011;3956;50.558;9.678;2023-04-03T16:02:05;2.63;;;1.30;;
7821;SDS011;3956;50.558;9.678;2023-04-03T16:05:00;2.03;;;1.20;;
7821;SDS011;3956;50.558;9.678;2023-04-03T16:07:53;2.93;;;1.40;;
7821;SDS011;3956;50.558;9.678;2023-04-03T16:11:11;3.27;;;1.40;;
7821;SDS011;3956;50.558;9.678;2023-04-03T16:14:23;3.70;;;1.70;;
7821;SDS011;3956;50.558;9.678;2023-04-03T16:17:10;3.10;;;1.50;;
7821;SDS011;3956;50.558;9.678;2023-04-03T16:19:38;2.70;;;1.30;;
7821;SDS011;3956;50.558;9.678;2023-04-03T16:22:08;5.57;;;2.03;;
7821;SDS011;3956;50.558;9.678;2023-04-03T16:24:39;3.67;;;1.40;;
7821;SDS011;3956;50.558;9.678;2023-04-03T16:27:10;4.10;;;1.40;;
7821;SDS011;3956;50.558;9.678;2023-04-03T16:29:40;3.40;;;1.77;;
7821;SDS011;3956;50.558;9.678;2023-04-03T16:32:12;2.33;;;1.27;;
7821;SDS011;3956;50.558;9.678;2023-04-03T16:34:41;3.47;;;1.90;;
7821;SDS011;3956;50.558;9.678;2023-04-03T16:37:24;3.67;;;1.70;;
7821;SDS011;3956;50.558;9.678;2023-04-03T16:40:00;7.40;;;1.63;;
7821;SDS011;3956;50.558;9.678;2023-04-03T16:42:31;1.97;;;1.23;;
7821;SDS011;3956;50.558;9.678;2023-04-03T16:45:03;2.70;;;1.70;;
7821;SDS011;3956;50.558;9.678;2023-04-03T16:47:43;3.17;;;1.40;;
7821;SDS011;3956;50.558;9.678;2023-04-03T16:50:11;3.87;;;1.90;;
7821;SDS011;3956;50.558;9.678;2023-04-03T16:52:41;5.20;;;1.77;;
7821;SDS011;3956;50.558;9.678;2023-04-03T16:55:16;2.33;;;1.47;;
7821;SDS011;3956;50.558;9.678;2023-04-03T16:58:05;3.47;;;1.33;;
7821;SDS011;3956;50.558;9.678;2023-04-03T17:00:38;1.57;;;1.40;;
7821;SDS011;3956;50.558;9.678;2023-04-03T17:03:09;2.93;;;1.30;;
7821;SDS011;3956;50.558;9.678;2023-04-03T17:05:48;3.40;;;1.70;;
7821;SDS011;3956;50.558;9.678;2023-04-03T17:09:04;4.13;;;2.17;;
7821;SDS011;3956;50.558;9.678;2023-04-03T17:11:33;4.27;;;1.60;;
7821;SDS011;3956;50.558;9.678;2023-04-03T17:14:02;1.97;;;1.23;;
7821;SDS011;3956;50.558;9.678;2023-04-03T17:16:40;3.60;;;1.70;;
7821;SDS011;3956;50.558;9.678;2023-04-03T17:19:39;5.37;;;1.77;;
7821;SDS011;3956;50.558;9.678;2023-04-03T17:22:10;4.60;;;1.60;;